Portada
METAR-TAF:

METAR-TAF

Aeroports :

Aeroport Internacional Diori Hamani

Niamey, Níger

latitud: 13-29N, longitud: 002-10E, altitud: 223 m

Observació

L'informe es va fer fa 1 hora i 18 minuts, a les 06:00 UTC
Vent 3 kt del Est/Nord-Est
Temperatura 17°C
Humitat 16%
Pressió 1015 hPa
Visibilitat 10 km o més
sense núvols per sota de 1500 mi sense presència de cumulonimbus.

METAR: DRRN 150600Z 07003KT CAVOK 17/M09 Q1015 NOSIG

Hora: 08:18 (07:18 UTC)

Pronòstic

L'informe es va fer fa 2 hores i 18 minuts, a les 05:00 UTC
Pronòstic vàlid del 15 a les 06 UTC al 16 a les 12 UTC
Vent 10 kt del Est
Visibilitat 10 km o més
sense núvols per sota de 1500 mi sense presència de cumulonimbus.
Probabilitat 30% :
Temporalment
l' 15 a les 06 UTC al 15 a les 08 UTC
Visibilitat: 4000 m
Pols estès
Probabilitat 30% :
Temporalment
l' 15 a les 17 UTC al 15 a les 20 UTC
Visibilitat: 4000 m
Pols estès

TAF: DRRN 150500Z 1506/1612 09010KT CAVOK PROB30 TEMPO 1506/1508 4000 DU PROB30 TEMPO 1517/1520 4000 DU

Observacions i pronòstics meteorològics de més de 4000 aeroports (METAR i TAF).

Les estacions disponibles són els punts grocs i vermells al mapa.

Posi el ratolí al punt desitjat per veure el nom de l'estació.

Feu clic per veure les observacions i els pronòstics meteorològics.

Per canviar el mapa: feu clic els botons verds amb una creu de color negre per apropar; al botó verd amb un guió per allunyar la imatge; o en les fletxes verdes per a mapes adjacents.


METAR-TAF: